Date,TemperatureHighF,TemperatureAvgF,TemperatureLowF,DewpointHighF,DewpointAvgF,DewpointLowF,HumidityHigh,HumidityAvg,HumidityLow,PressureMaxIn,PressureMinIn,WindSpeedMaxMPH,WindSpeedAvgMPH,GustSpeedMaxMPH,PrecipitationSumIn
2013-1-1,59,40,29,31,24,18,77,55,35,29.77,29.68,8,1,10,0.00
2013-1-2,60,38,27,32,24,20,83,59,35,29.74,29.59,6,0,6,0.00
2013-1-3,59,38,27,32,25,21,85,62,35,29.71,29.62,5,0,6,0.00
2013-1-4,59,40,29,34,27,24,87,63,35,29.71,17.72,6,1,6,0.00
2013-1-5,50,42,32,40,32,27,88,69,48,17.72,17.72,6,1,8,0.04
2013-1-6,59,46,36,45,38,32,96,75,38,17.72,17.72,8,1,8,0.08
2013-1-7,56,42,34,39,34,30,90,73,41,17.72,17.72,6,0,6,0.00
2013-1-8,58,44,37,46,37,33,95,76,44,17.72,17.72,6,1,6,0.00
2013-1-9,48,43,38,45,39,35,94,87,77,17.72,17.72,6,0,6,0.04
2013-1-10,52,39,30,41,28,21,98,71,37,17.72,17.72,9,1,9,0.00
2013-1-11,53,37,27,33,24,21,84,62,37,17.72,17.72,8,1,8,0.00
2013-1-12,52,34,24,26,20,14,80,57,37,17.72,17.72,5,0,6,0.00
2013-1-13,51,32,21,26,17,10,77,54,37,17.72,17.72,8,1,8,0.00
2013-1-14,53,37,25,27,17,9,57,44,36,17.72,17.72,9,1,10,0.00
2013-1-15,55,38,27,29,22,16,74,54,36,17.72,17.72,8,1,8,0.00
2013-1-16,60,39,27,34,26,22,85,61,35,17.72,17.72,5,0,6,0.00
2013-1-17,62,40,26,34,26,20,85,61,35,17.72,17.72,5,0,6,0.00
2013-1-18,67,42,27,36,26,21,88,58,33,17.72,17.72,8,1,8,0.00
2013-1-19,66,43,27,36,26,20,77,53,33,17.72,17.72,6,1,6,0.00
2013-1-20,68,44,28,38,27,22,83,55,33,17.72,17.72,6,1,8,0.00
2013-1-21,62,43,29,34,27,22,79,56,34,17.72,17.72,7,1,8,0.00
2013-1-22,67,44,30,37,28,23,81,56,33,17.72,17.72,4,0,5,0.00
2013-1-23,55,46,40,47,36,28,96,67,42,17.72,17.72,5,0,6,0.31
2013-1-24,61,53,47,50,47,45,98,82,56,17.72,17.72,8,1,8,0.04
2013-1-25,63,55,50,53,49,44,94,81,50,17.72,17.72,6,0,6,0.00
2013-1-26,60,52,44,56,43,23,97,76,37,17.72,17.72,8,1,10,0.04
2013-1-27,58,44,32,39,28,22,91,54,35,17.72,17.72,9,1,9,0.00
2013-1-28,60,45,34,35,29,25,79,54,35,17.72,17.72,9,1,12,0.00
2013-1-29,64,46,34,38,31,27,83,60,34,17.72,17.72,10,1,10,0.00
2013-1-30,68,49,38,39,34,30,86,57,35,17.72,17.72,6,1,9,0.00
2013-1-31,66,47,33,44,34,29,90,65,35,17.72,17.72,5,0,6,0.00
2013-2-1,69,49,34,44,34,30,94,62,33,17.72,17.72,6,0,6,0.00
2013-2-2,68,49,38,38,34,30,84,61,33,17.72,17.72,4,0,4,0.00
2013-2-3,69,49,34,44,36,30,90,63,33,17.72,17.72,6,0,6,0.00
2013-2-4,67,50,38,41,35,32,83,60,34,17.72,17.72,6,1,6,0.00
2013-2-5,59,47,38,44,38,32,86,71,45,17.72,17.72,8,1,9,0.00
2013-2-6,64,47,33,40,33,30,93,61,35,17.72,17.72,10,2,12,0.00
2013-2-7,57,48,42,46,36,30,88,66,43,17.72,17.72,15,4,16,0.24
2013-2-8,58,46,39,37,30,19,87,56,35,17.72,17.72,15,2,17,0.04
2013-2-9,61,46,30,33,24,18,69,44,34,17.72,17.72,10,1,11,0.00
2013-2-10,66,46,31,36,26,20,75,48,33,17.72,17.72,10,1,12,0.00
2013-2-11,66,49,32,36,27,19,67,43,33,17.72,17.72,8,1,9,0.00
2013-2-12,63,47,33,34,28,23,72,49,34,17.72,17.72,6,0,6,0.00
2013-2-13,70,48,33,39,32,27,87,57,33,17.72,0.00,6,1,6,0.00
2013-2-14,74,55,37,42,34,26,83,47,31,0.00,0.00,15,2,15,0.00
2013-2-15,74,54,37,42,33,25,72,47,31,0.00,0.00,5,1,6,0.00
2013-2-16,71,48,37,40,34,31,82,61,32,0.00,0.00,4,0,5,0.00
2013-2-17,69,50,36,39,31,24,85,51,33,0.00,0.00,12,1,12,0.00
2013-2-18,63,48,35,37,32,26,77,54,36,0.00,0.00,15,4,19,0.00
2013-2-19,52,43,33,39,32,25,82,65,44,0.00,0.00,17,5,18,0.12
2013-2-20,60,46,32,32,28,19,88,53,35,0.00,0.00,12,2,15,0.00
2013-2-21,62,46,32,33,26,20,71,47,34,0.00,0.00,9,1,13,0.00
2013-2-22,63,50,34,34,28,22,68,45,34,0.00,0.00,11,2,14,0.00
2013-2-23,60,51,42,33,27,18,59,39,35,0.00,0.00,18,4,20,0.00
2013-2-24,66,49,36,36,24,15,46,38,33,0.00,0.00,12,2,13,0.00
2013-2-25,66,52,39,36,27,19,52,39,33,0.00,0.00,9,1,10,0.00
2013-2-26,68,50,38,38,25,17,43,38,33,0.00,0.00,14,2,14,0.00
2013-2-27,69,51,32,39,28,19,64,43,33,0.00,0.00,8,1,9,0.00
2013-2-28,73,57,42,41,33,26,59,42,32,0.00,0.00,8,1,8,0.00
2013-3-1,76,57,40,44,37,32,82,51,31,0.00,0.00,6,1,6,0.00
2013-3-2,71,58,46,44,40,38,75,54,33,0.00,0.00,5,0,5,0.00
2013-3-3,70,59,50,51,44,38,83,60,34,0.00,0.00,8,1,9,0.04
2013-3-4,70,56,42,47,40,36,86,57,34,0.00,0.00,9,2,10,0.00
2013-3-5,64,56,48,43,34,29,76,45,34,0.00,0.00,17,6,18,0.28
2013-3-6,59,51,43,43,35,30,83,56,36,0.00,0.00,17,6,23,0.24
2013-3-7,63,48,37,34,31,28,81,55,34,0.00,0.00,6,1,7,0.00
2013-3-8,68,52,37,38,31,25,77,46,33,0.00,0.00,13,2,13,0.00
2013-3-9,71,54,37,40,33,25,81,47,32,0.00,0.00,11,2,12,0.00
2013-3-10,75,54,36,42,31,20,58,44,31,0.00,0.00,8,1,8,0.00
2013-3-11,75,56,39,43,36,31,77,49,31,0.00,0.00,6,1,8,0.00
2013-3-12,76,59,42,45,39,35,84,51,31,0.00,0.00,5,0,6,0.00
2013-3-13,82,62,45,48,42,38,85,52,30,0.00,0.00,6,1,6,0.00
2013-3-14,78,62,48,48,42,38,82,50,31,0.00,0.00,6,0,6,0.00
2013-3-15,79,61,49,48,42,37,83,54,30,0.00,0.00,8,1,8,0.00
2013-3-16,79,61,44,46,38,33,72,44,30,0.00,0.00,10,2,11,0.00
2013-3-17,73,60,46,42,33,26,49,36,32,0.00,0.00,11,2,11,0.00
2013-3-18,71,56,39,40,34,26,72,45,32,0.00,0.00,5,1,6,0.00
2013-3-19,69,59,51,49,41,34,78,52,34,0.00,0.00,9,2,10,0.16
2013-3-20,64,56,50,53,50,44,93,80,54,0.00,0.00,15,4,17,0.20
2013-3-21,67,56,45,50,34,26,86,45,33,0.00,0.00,15,4,15,0.00
2013-3-22,65,53,34,35,28,17,55,37,33,0.00,0.00,17,2,17,0.00
2013-3-23,76,56,41,43,29,18,43,36,31,0.00,0.00,9,2,10,0.00
2013-3-24,75,57,40,42,34,26,69,43,31,0.00,0.00,6,1,6,0.00
2013-3-25,72,58,42,42,36,31,78,44,32,0.00,0.00,12,2,12,0.00
2013-3-26,71,58,45,41,37,30,72,46,33,0.00,0.00,8,1,10,0.00
2013-3-27,72,61,50,42,40,37,65,46,33,0.00,0.00,11,3,11,0.00
2013-3-28,69,60,52,49,42,37,84,53,34,0.00,0.00,8,3,11,0.00
2013-3-29,82,62,47,48,44,38,94,57,30,0.00,0.00,7,1,7,0.00
2013-3-30,76,63,48,46,42,39,78,49,32,0.00,0.00,8,1,9,0.00
2013-3-31,68,60,54,55,48,38,91,68,36,0.00,0.00,10,2,11,0.59
2013-4-1,71,59,52,54,47,40,93,67,35,0.00,0.00,6,1,6,0.00
2013-4-2,76,60,46,52,44,38,94,59,32,0.00,0.00,6,1,8,0.00
2013-4-3,77,62,49,50,45,42,84,56,32,0.00,0.00,6,1,8,0.00
2013-4-4,68,60,54,53,50,42,88,70,50,0.00,0.00,13,4,15,0.39
2013-4-5,67,60,53,53,46,41,88,63,40,0.00,0.00,10,3,10,0.00
2013-4-6,68,61,54,47,45,41,74,57,38,0.00,0.00,12,4,12,0.00
2013-4-7,68,60,52,46,41,33,70,50,35,0.00,0.00,13,4,13,0.04
2013-4-8,69,58,48,45,35,25,83,44,33,0.00,0.00,17,4,17,0.16
2013-4-9,76,62,47,44,34,24,45,35,31,0.00,0.00,17,3,17,0.00
2013-4-10,86,67,48,50,41,32,69,40,29,0.00,0.00,11,2,11,0.00
2013-4-11,79,67,58,46,38,30,36,33,31,0.00,0.00,15,4,15,0.00
2013-4-12,83,67,54,48,37,28,38,34,30,0.00,0.00,6,1,6,0.00
2013-4-13,77,65,50,44,40,32,68,42,31,0.00,0.00,9,2,10,0.00
2013-4-14,73,62,52,41,33,26,37,34,32,0.00,0.00,11,3,14,0.00
2013-4-15,65,56,48,35,29,24,39,36,33,0.00,0.00,14,4,20,0.00
2013-4-16,68,56,46,38,29,22,38,36,33,0.00,0.00,14,4,17,0.00
2013-4-17,72,58,44,40,31,22,43,36,32,0.00,0.00,13,3,15,0.00
2013-4-18,81,61,43,46,34,23,48,37,30,0.00,0.00,10,2,10,0.00
2013-4-19,83,65,48,48,40,33,69,41,30,0.00,0.00,13,2,13,0.00
2013-4-20,85,68,55,49,38,29,42,33,29,0.00,0.00,12,2,13,0.00
2013-4-21,88,68,48,52,41,34,67,40,28,0.00,0.00,9,2,12,0.00
2013-4-22,86,72,56,50,42,32,50,34,29,0.00,0.00,17,3,17,0.00
2013-4-23,87,69,53,51,38,27,45,33,29,0.00,0.00,10,2,11,0.00
2013-4-24,87,71,50,51,40,28,49,34,29,0.00,0.00,12,2,12,0.00
2013-4-25,81,65,50,46,40,33,70,41,30,0.00,0.00,8,2,8,0.00
2013-4-26,85,66,52,50,44,39,71,47,30,0.00,0.00,6,1,7,0.00
2013-4-27,92,71,55,54,48,42,76,47,28,0.00,0.00,6,1,6,0.00
2013-4-28,93,74,57,54,48,42,77,43,27,0.00,0.00,8,1,10,0.00
2013-4-29,88,76,60,52,43,33,46,32,28,0.00,0.00,15,3,19,0.00
2013-4-30,82,72,63,48,41,34,34,32,29,0.00,0.00,19,5,20,0.00
2013-5-1,92,73,56,53,41,28,35,32,27,0.00,0.00,12,3,15,0.00
2013-5-2,92,71,51,54,40,26,37,32,27,0.00,0.00,8,1,8,0.00
2013-5-3,93,73,52,54,43,33,57,36,27,0.00,0.00,8,2,11,0.00
2013-5-4,89,74,54,52,42,30,42,32,28,0.00,0.00,14,3,15,0.00
2013-5-5,73,65,58,42,39,33,49,39,32,0.00,0.00,10,2,11,0.00
2013-5-6,67,61,55,54,46,40,81,60,42,0.00,0.00,8,1,10,0.12
2013-5-7,70,62,52,50,47,42,83,60,37,0.00,0.00,8,1,9,0.00
2013-5-8,75,66,60,52,48,43,72,53,34,0.00,0.00,8,1,8,0.00
2013-5-9,86,70,58,51,48,45,73,48,31,0.00,0.00,6,1,8,0.00
2013-5-10,90,74,59,56,52,47,79,49,31,0.00,0.00,7,1,7,0.00
2013-5-11,89,76,63,60,54,50,79,49,30,0.00,0.00,6,1,8,0.00
2013-5-12,95,79,65,56,50,41,70,38,27,0.00,0.00,8,2,8,0.00
2013-5-13,94,75,60,55,46,38,56,38,27,0.00,0.00,8,1,9,0.00
2013-5-14,92,76,59,54,48,43,64,39,27,0.00,0.00,6,1,8,0.00
2013-5-15,82,70,61,49,43,38,47,37,31,0.00,0.00,9,2,10,0.00
2013-5-16,75,67,61,44,42,40,52,41,33,0.00,0.00,11,3,11,0.00
2013-5-17,79,65,55,46,41,36,64,42,30,0.00,0.00,10,2,11,0.00
2013-5-18,82,68,51,47,41,34,64,39,30,0.00,0.00,10,1,10,0.00
2013-5-19,85,72,60,49,41,33,36,32,29,0.00,0.00,14,3,14,0.00
2013-5-20,89,74,57,52,42,31,40,33,28,0.00,0.00,9,2,10,0.00
2013-5-21,78,70,54,45,40,28,42,34,31,0.00,0.00,13,3,16,0.00
2013-5-22,73,60,49,41,32,24,37,34,32,0.00,0.00,13,4,14,0.00
2013-5-23,74,62,50,42,34,25,41,35,31,0.00,0.00,8,1,8,0.00
2013-5-24,76,64,48,43,37,27,57,37,31,0.00,0.00,8,1,9,0.00
2013-5-25,77,66,51,45,39,32,58,38,31,0.00,0.00,13,2,13,0.00
2013-5-26,78,66,53,45,41,38,65,42,31,0.00,0.00,9,2,10,0.00
2013-5-27,67,62,57,55,46,38,82,57,37,0.00,0.00,13,3,13,0.16
2013-5-28,77,67,58,55,48,42,85,56,32,0.00,0.00,9,2,9,0.00
2013-5-29,81,70,62,48,44,37,59,40,30,0.00,0.00,10,2,12,0.00
2013-5-30,84,69,53,48,42,34,66,39,29,0.00,0.00,7,1,8,0.00
2013-5-31,93,76,54,54,44,31,47,32,27,0.00,0.00,13,3,13,0.00
2013-6-1,98,83,71,58,48,40,43,30,26,0.00,0.00,10,2,10,0.00
2013-6-2,96,80,65,56,47,37,41,32,27,0.00,0.00,6,1,8,0.00
2013-6-3,99,81,61,58,50,42,61,35,26,0.00,0.00,10,2,10,0.00
2013-6-4,87,74,63,53,48,44,59,41,30,0.00,0.00,9,2,9,0.00
2013-6-5,86,73,60,57,49,44,59,43,31,0.00,0.00,8,2,9,0.00
2013-6-6,90,77,64,61,54,48,63,46,30,0.00,0.00,6,1,6,0.00
2013-6-7,105,84,67,62,58,46,77,45,25,0.00,0.00,6,1,6,0.00
2013-6-8,107,90,70,63,54,46,47,31,24,0.00,0.00,10,2,12,0.00
2013-6-9,86,77,68,54,49,45,46,38,31,0.00,0.00,10,4,11,0.00
2013-6-10,72,65,59,57,51,45,83,63,43,0.00,0.00,10,2,10,0.28
2013-6-11,83,70,57,56,50,43,86,53,31,0.00,0.00,8,1,9,0.00
2013-6-12,86,73,57,50,46,40,68,40,29,0.00,0.00,10,2,13,0.00
2013-6-13,85,73,58,50,42,34,47,33,29,0.00,0.00,11,2,11,0.00
2013-6-14,90,76,63,52,43,35,37,31,28,0.00,0.00,14,2,14,0.00
2013-6-15,88,75,58,52,44,36,56,34,28,0.00,0.00,8,2,8,0.00
2013-6-16,89,76,61,53,46,40,50,35,28,0.00,0.00,8,2,8,0.00
2013-6-17,88,75,63,52,45,39,47,34,28,0.00,0.00,10,2,10,0.00
2013-6-18,78,69,60,48,44,37,62,42,31,0.00,0.00,12,4,15,0.00
2013-6-19,78,68,57,45,41,34,54,38,31,0.00,0.00,12,1,13,0.00
2013-6-20,84,70,54,49,42,36,59,38,29,0.00,0.00,7,1,7,0.00
2013-6-21,89,74,56,52,44,36,55,35,28,0.00,0.00,8,2,9,0.00
2013-6-22,91,77,60,53,44,34,41,32,28,0.00,0.00,9,2,11,0.00
2013-6-23,77,70,66,52,47,40,58,43,32,0.00,0.00,12,4,14,0.00
2013-6-24,70,65,62,58,52,43,87,63,39,0.00,0.00,14,5,17,0.04
2013-6-25,75,67,62,63,60,56,94,77,56,0.00,0.00,16,3,17,0.39
2013-6-26,87,76,68,59,56,51,73,52,31,0.00,0.00,10,2,11,0.00
2013-6-27,95,79,65,64,57,52,87,50,27,0.00,0.00,6,1,6,0.00
2013-6-28,99,83,66,65,58,51,79,47,27,0.00,0.00,8,1,8,0.00
2013-6-29,104,87,70,63,58,51,70,40,25,0.00,0.00,6,1,8,0.00
2013-6-30,100,85,67,66,55,49,67,38,26,0.00,0.00,6,1,8,0.00
2013-7-1,104,86,69,64,57,48,68,40,25,0.00,0.00,6,1,6,0.00
2013-7-2,100,88,74,61,56,49,50,34,27,0.00,0.00,10,2,10,0.00
2013-7-3,106,89,73,64,56,50,52,33,25,0.00,0.00,12,1,13,0.00
2013-7-4,109,95,83,64,56,47,32,27,24,0.00,0.00,11,3,12,0.00
2013-7-5,88,81,73,53,48,43,41,32,29,0.00,0.00,9,2,9,0.00
2013-7-6,90,77,66,58,51,46,60,41,29,0.00,0.00,7,2,8,0.00
2013-7-7,92,78,62,54,50,44,67,38,28,0.00,0.00,6,1,8,0.00
2013-7-8,92,77,62,54,47,41,57,36,28,0.00,0.00,8,2,8,0.00
2013-7-9,96,79,61,57,48,38,64,36,27,0.00,0.00,6,1,7,0.00
2013-7-10,96,82,65,57,50,43,52,34,27,0.00,0.00,9,2,13,0.00
2013-7-11,90,77,62,53,45,36,45,33,28,0.00,0.00,8,2,9,0.00
2013-7-12,89,75,59,52,46,39,65,37,28,0.00,0.00,11,2,11,0.00
2013-7-13,93,77,61,54,48,40,55,36,27,0.00,0.00,8,1,9,0.00
2013-7-14,96,79,61,56,47,36,46,33,27,0.00,0.00,6,1,7,0.00
2013-7-15,90,76,64,53,47,41,55,36,28,0.00,0.00,9,2,9,0.00
2013-7-16,84,71,59,49,45,41,62,40,30,0.00,0.00,10,3,11,0.00
2013-7-17,90,74,56,53,48,40,80,44,28,0.00,0.00,7,1,8,0.00
2013-7-18,94,77,59,55,47,39,60,36,27,0.00,0.00,6,1,8,0.00
2013-7-19,96,80,63,57,50,40,54,35,27,0.00,0.00,8,1,8,0.00
2013-7-20,95,82,68,60,54,47,62,39,27,0.00,0.00,5,1,6,0.00
2013-7-21,95,82,68,60,52,46,55,36,28,0.00,0.00,8,2,8,0.00
2013-7-22,92,80,67,55,48,41,44,33,28,0.00,0.00,8,2,10,0.00
2013-7-23,91,80,68,55,48,40,45,32,28,0.00,0.00,8,2,8,0.00
2013-7-24,96,83,68,57,50,42,44,33,27,0.00,0.00,6,1,8,0.00
2013-7-25,97,85,72,59,54,48,59,35,27,0.00,0.00,8,2,8,0.00
2013-7-26,94,83,70,62,50,42,40,33,28,0.00,0.00,7,2,8,0.00
2013-7-27,93,81,68,57,52,47,65,39,28,0.00,0.00,8,2,9,0.00
2013-7-28,90,79,65,61,52,44,65,40,29,0.00,0.00,9,2,9,0.00
2013-7-29,83,72,60,50,46,40,65,39,30,0.00,0.00,9,2,12,0.00
2013-7-30,88,73,59,52,49,44,68,44,29,0.00,0.00,8,1,8,0.00
2013-7-31,90,75,64,54,48,43,53,39,29,0.00,0.00,10,3,12,0.00
2013-8-1,87,73,62,51,45,41,47,37,29,0.00,0.00,9,2,9,0.00
2013-8-2,93,75,60,55,46,39,57,37,27,0.00,0.00,6,1,6,0.00
2013-8-3,94,76,60,55,47,39,59,37,27,0.00,0.00,8,1,8,0.00
2013-8-4,91,75,61,53,47,40,56,37,28,0.00,0.00,6,1,8,0.00
2013-8-5,92,75,61,54,47,40,59,39,28,0.00,0.00,7,1,8,0.00
2013-8-6,87,73,58,52,46,39,64,40,29,0.00,0.00,10,2,10,0.00
2013-8-7,84,70,60,51,48,46,70,47,31,0.00,0.00,8,3,10,0.00
2013-8-8,85,71,58,52,49,44,73,48,30,0.00,0.00,8,1,8,0.00
2013-8-9,85,71,60,49,47,42,65,43,29,0.00,0.00,6,1,7,0.00
2013-8-10,88,72,59,52,48,42,71,45,29,0.00,0.00,7,1,8,0.00
2013-8-11,90,75,60,54,49,43,72,42,29,0.00,0.00,7,1,7,0.00
2013-8-12,90,75,61,53,48,41,65,39,28,0.00,0.00,6,1,7,0.00
2013-8-13,95,77,60,56,48,39,64,37,27,0.00,0.00,6,1,7,0.00
2013-8-14,97,79,62,58,47,39,49,33,26,0.00,0.00,8,1,8,0.00
2013-8-15,96,78,62,56,49,40,58,37,27,0.00,0.00,8,1,8,0.00
2013-8-16,97,80,63,58,51,42,74,39,27,0.00,0.00,6,1,7,0.00
2013-8-17,98,80,65,58,50,42,56,37,27,0.00,0.00,6,1,6,0.00
2013-8-18,94,80,66,59,54,46,67,42,28,0.00,0.00,6,1,6,0.00
2013-8-19,92,80,70,61,56,51,67,45,28,0.00,0.00,6,0,6,0.00
2013-8-20,95,82,72,63,54,48,58,39,27,0.00,0.00,10,1,10,0.00
2013-8-21,91,78,68,58,51,44,49,39,29,0.00,0.00,7,2,9,0.00
2013-8-22,94,77,65,55,48,43,58,38,27,0.00,0.00,8,2,8,0.00
2013-8-23,91,74,60,54,47,43,65,40,29,0.00,0.00,6,1,7,0.00
2013-8-24,87,75,64,51,47,44,52,38,29,0.00,0.00,11,2,11,0.00
2013-8-25,87,75,66,54,49,42,62,41,29,0.00,0.00,13,3,13,0.00
2013-8-26,90,74,63,52,47,40,66,40,28,0.00,0.00,8,2,8,0.00
2013-8-27,93,76,57,54,47,40,66,37,27,0.00,0.00,8,2,9,0.00
2013-8-28,96,78,66,57,47,40,49,34,27,0.00,0.00,8,2,9,0.00
2013-8-29,97,78,67,57,49,40,56,37,27,0.00,0.00,9,2,10,0.00
2013-8-30,99,78,62,58,47,39,48,33,26,0.00,0.00,6,1,6,0.00
2013-8-31,96,80,62,57,47,39,49,33,27,0.00,0.00,11,2,11,0.00
2013-9-1,84,77,68,51,45,40,42,33,30,0.00,0.00,9,2,9,0.00
2013-9-2,85,76,68,53,48,42,56,38,30,0.00,0.00,11,3,12,0.00
2013-9-3,88,74,62,57,49,41,73,44,29,0.00,0.00,8,2,9,0.00
2013-9-4,90,72,58,52,47,41,68,43,28,0.00,0.00,6,1,8,0.00
2013-9-5,89,72,60,53,47,38,67,43,29,0.00,0.00,8,2,10,0.00
2013-9-6,95,75,57,56,45,38,56,35,27,0.00,0.00,10,2,11,0.00
2013-9-7,95,75,57,56,46,39,55,37,27,0.00,0.00,6,1,8,0.00
2013-9-8,98,78,59,58,47,39,53,35,26,0.00,0.00,5,1,5,0.00
2013-9-9,104,81,61,61,49,41,51,35,25,0.00,0.00,6,1,8,0.00
2013-9-10,94,79,63,55,48,41,52,35,27,0.00,0.00,10,2,10,0.00
2013-9-11,83,72,62,53,50,48,68,47,31,0.00,0.00,8,2,8,0.00
2013-9-12,88,73,61,55,51,49,75,48,29,0.00,0.00,6,1,7,0.00
2013-9-13,90,76,65,54,52,50,66,46,29,0.00,0.00,5,1,6,0.00
2013-9-14,90,76,64,55,50,46,59,41,29,0.00,0.00,8,1,9,0.00
2013-9-15,86,73,60,50,46,42,61,40,29,0.00,0.00,10,2,10,0.00
2013-9-16,86,73,59,52,47,42,65,42,29,0.00,0.00,6,1,6,0.00
2013-9-17,80,70,61,47,44,38,60,40,31,0.00,0.00,9,3,11,0.00
2013-9-18,86,71,60,50,40,34,38,33,29,0.00,0.00,10,3,12,0.00
2013-9-19,89,69,52,52,41,33,52,37,28,0.00,0.00,6,1,6,0.00
2013-9-20,84,69,53,48,43,34,60,40,29,0.00,0.00,10,3,11,0.00
2013-9-21,68,62,57,59,54,48,90,78,49,0.00,0.00,13,2,14,0.71
2013-9-22,74,61,50,56,48,41,97,66,33,0.00,0.00,5,0,6,0.00
2013-9-23,84,67,54,54,49,44,87,56,30,0.00,0.00,0,0,0,0.00
2013-9-24,77,68,62,55,47,35,72,48,32,0.00,0.00,11,2,11,0.16
2013-9-25,72,62,50,43,37,31,76,41,32,0.00,0.00,11,3,11,0.00
2013-9-26,74,63,52,42,35,29,45,36,31,0.00,0.00,15,3,15,0.00
2013-9-27,79,63,50,46,36,29,55,38,30,0.00,0.00,9,2,10,0.00
2013-9-28,79,66,50,46,41,36,73,43,30,0.00,0.00,11,2,11,0.00
2013-9-29,73,67,62,51,45,36,56,45,33,0.00,0.00,12,5,16,0.00
2013-9-30,78,69,64,55,51,48,72,54,35,0.00,0.00,14,4,14,0.00
2013-10-1,78,66,58,57,47,34,85,53,31,0.00,0.00,6,1,7,0.00
2013-10-2,78,65,53,44,39,33,62,39,31,0.00,0.00,11,2,13,0.00
2013-10-3,75,64,55,42,35,29,36,34,31,0.00,0.00,14,4,17,0.00
2013-10-4,81,67,55,46,37,28,36,33,30,0.00,0.00,14,3,17,0.00
2013-10-5,85,65,47,49,36,24,41,34,29,0.00,0.00,6,1,6,0.00
2013-10-6,81,62,45,47,37,30,61,42,30,0.00,0.00,5,0,5,0.00
2013-10-7,79,61,46,46,38,30,63,43,30,0.00,0.00,4,0,7,0.00
2013-10-8,77,65,51,44,36,29,43,34,31,0.00,0.00,12,2,12,0.00
2013-10-9,74,65,58,42,36,31,35,33,31,0.00,0.00,13,4,15,0.00
2013-10-10,72,62,53,41,36,28,47,39,32,0.00,0.00,9,2,14,0.00
2013-10-11,75,60,46,43,38,33,75,47,31,0.00,0.00,5,0,6,0.00
2013-10-12,75,60,46,51,39,34,73,48,32,0.00,0.00,7,1,8,0.00
2013-10-13,75,61,52,42,36,31,62,41,31,0.00,0.00,11,2,13,0.00
2013-10-14,78,62,49,45,35,28,52,38,31,0.00,0.00,9,1,9,0.00
2013-10-15,80,64,49,46,35,27,46,35,30,0.00,0.00,10,2,11,0.00
2013-10-16,79,59,42,46,34,24,57,40,30,0.00,0.00,5,1,5,0.00
2013-10-17,81,60,43,47,36,30,63,43,30,0.00,0.00,5,0,7,0.00
2013-10-18,83,61,44,48,37,30,63,42,29,0.00,0.00,6,1,6,0.00
2013-10-19,84,61,44,49,39,34,71,46,29,0.00,0.00,4,0,5,0.00
2013-10-20,85,62,45,49,39,34,69,44,29,0.00,0.00,5,0,5,0.00
2013-10-21,82,62,46,48,39,33,70,44,30,0.00,0.00,4,0,5,0.00
2013-10-22,85,62,46,50,39,32,71,46,29,0.00,0.00,5,0,5,0.00
2013-10-23,84,61,45,49,38,30,67,44,29,0.00,0.00,4,0,4,0.00
2013-10-24,78,59,44,45,36,29,64,44,31,0.00,0.00,5,1,6,0.00
2013-10-25,76,58,44,44,38,33,68,50,31,0.00,0.00,6,0,6,0.00
2013-10-26,80,59,44,46,38,34,68,49,30,0.00,0.00,5,0,5,0.00
2013-10-27,72,56,43,41,37,32,78,51,32,0.00,0.00,14,2,15,0.04
2013-10-28,59,53,43,46,38,32,87,60,38,0.00,0.00,8,1,9,0.00
2013-10-29,63,56,47,45,39,36,71,55,37,0.00,0.00,6,0,6,0.00
2013-10-30,69,52,39,43,36,32,86,57,33,0.00,0.00,5,0,6,0.00
2013-10-31,70,54,41,41,36,32,78,54,33,0.00,0.00,5,1,6,0.00
2013-11-1,75,56,42,47,38,33,84,53,31,0.00,0.00,5,0,6,0.00
2013-11-2,72,55,42,41,35,30,73,49,32,0.00,0.00,10,2,13,0.00
2013-11-3,64,57,50,35,30,25,37,35,34,0.00,0.00,15,6,17,0.00
2013-11-4,69,57,48,39,30,23,38,35,33,0.00,0.00,14,4,18,0.00
2013-11-5,73,58,42,42,31,21,43,36,31,0.00,0.00,8,1,9,0.00
2013-11-6,70,56,46,39,33,27,54,42,32,0.00,0.00,4,0,5,0.00
2013-11-7,73,59,49,42,35,28,56,42,32,0.00,0.00,8,1,8,0.00
2013-11-8,75,56,43,43,34,29,66,46,31,0.00,0.00,4,0,5,0.00
2013-11-9,75,56,42,43,36,32,74,50,31,0.00,0.00,4,0,5,0.00
2013-11-10,74,55,42,42,36,32,76,51,32,0.00,0.00,6,0,6,0.00
2013-11-11,70,54,39,39,34,28,74,49,32,0.00,0.00,6,0,6,0.00
2013-11-12,73,59,48,42,35,30,58,41,32,0.00,0.00,5,0,6,0.00
2013-11-13,81,59,41,47,37,32,74,47,30,0.00,0.00,9,1,10,0.00
2013-11-14,72,56,45,41,36,30,64,48,32,0.00,0.00,6,0,6,0.00
2013-11-15,68,57,44,38,30,22,42,36,33,0.00,0.00,14,3,15,0.00
2013-11-16,65,53,43,36,30,22,55,41,34,0.00,0.00,8,1,8,0.00
2013-11-17,66,49,37,37,31,28,73,52,34,0.00,0.00,6,0,6,0.00
2013-11-18,61,50,37,40,34,28,77,55,37,0.00,0.00,7,1,9,0.00
2013-11-19,56,54,51,54,50,41,96,89,63,0.00,0.00,9,2,10,0.91
2013-11-20,56,55,51,55,54,47,98,95,87,0.00,0.00,0,0,0,0.20
2013-11-21,67,53,44,47,29,23,87,41,33,0.00,0.00,11,2,13,0.00
2013-11-22,74,54,38,42,27,16,41,36,31,0.00,0.00,13,2,13,0.00
2013-11-23,72,53,36,40,28,16,63,40,32,0.00,0.00,11,2,11,0.00
2013-11-24,63,46,34,35,31,27,79,58,35,0.00,0.00,5,1,6,0.00
2013-11-25,65,45,32,36,31,27,84,60,34,0.00,0.00,5,0,6,0.00
2013-11-26,64,46,35,36,32,29,82,62,34,0.00,0.00,0,0,3,0.00
2013-11-27,66,48,37,40,34,31,86,63,34,0.00,0.00,5,0,6,0.00
2013-11-28,73,51,38,43,35,32,89,58,32,0.00,0.00,5,0,5,0.00
2013-11-29,71,51,37,39,34,31,84,55,32,0.00,0.00,6,0,6,0.00
2013-11-30,70,52,41,40,35,32,83,55,32,0.00,0.00,6,0,6,0.00
2013-12-1,69,50,38,42,35,32,86,60,33,0.00,0.00,4,0,5,0.00
2013-12-2,64,50,38,42,37,33,86,62,36,0.00,0.00,10,1,11,0.00
2013-12-3,57,51,40,44,28,16,68,41,35,0.00,0.00,19,2,19,0.00
2013-12-4,50,37,26,25,15,9,53,40,37,0.00,0.00,13,2,14,0.00
2013-12-5,52,34,23,26,14,7,54,44,36,0.00,0.00,6,1,6,0.00
2013-12-6,44,34,23,34,20,9,89,58,39,0.00,0.00,15,3,17,0.20
2013-12-7,46,36,27,36,25,15,93,68,38,0.00,0.00,13,1,13,0.00
2013-12-8,43,32,25,21,14,9,77,49,38,0.00,0.00,11,2,11,0.00
2013-12-9,53,37,28,27,16,9,67,43,36,0.00,0.00,8,2,13,0.00
2013-12-10,56,36,25,29,20,16,73,54,35,0.00,0.00,6,1,7,0.00
2013-12-11,58,38,26,30,23,18,79,57,35,0.00,0.00,5,0,6,0.00
2013-12-12,65,40,27,36,25,21,79,57,34,0.00,0.00,6,0,6,0.00
2013-12-13,65,43,29,35,26,21,78,53,33,0.00,0.00,9,1,9,0.00
2013-12-14,60,44,32,32,26,21,74,52,35,0.00,0.00,5,0,6,0.00
2013-12-15,66,43,30,36,28,24,84,59,34,0.00,0.00,4,0,5,0.00
2013-12-16,67,44,30,37,29,25,84,59,33,0.00,0.00,5,0,6,0.00
2013-12-17,64,44,33,37,30,26,83,61,34,0.00,0.00,4,0,4,0.00
2013-12-18,60,44,34,35,31,27,80,62,36,0.00,0.00,4,0,5,0.00
2013-12-19,61,50,35,33,27,19,80,41,34,0.00,0.00,17,4,17,0.00
2013-12-20,65,47,32,35,22,11,41,38,33,0.00,0.00,6,1,8,0.00
2013-12-21,63,45,33,34,24,17,62,45,34,0.00,0.00,6,1,6,0.00
2013-12-22,73,49,34,42,30,25,75,51,32,0.00,0.00,6,0,6,0.00
2013-12-23,66,47,35,37,30,27,80,54,34,0.00,0.00,6,1,6,0.00
2013-12-24,72,50,34,41,31,24,86,53,32,0.00,0.00,10,1,12,0.00
2013-12-25,69,46,32,39,29,24,73,55,33,0.00,0.00,4,0,6,0.00
2013-12-26,72,45,30,40,28,22,85,55,32,0.00,0.00,6,0,6,0.00
2013-12-27,57,41,32,30,26,22,76,56,35,0.00,0.00,6,0,8,0.00
2013-12-28,71,46,28,40,27,18,83,52,32,0.00,0.00,10,1,10,0.00
2013-12-29,64,46,33,35,24,13,63,44,34,0.00,0.00,10,1,11,0.00
2013-12-30,64,45,32,35,28,23,75,53,34,0.00,0.00,5,0,5,0.00
2013-12-31,69,47,37,38,27,21,66,48,32,0.00,0.00,5,0,6,0.00
2014-1-1,65,45,33,36,27,21,72,50,34,0.00,0.00,6,1,7,0.00
2014-1-2,71,48,33,40,30,26,78,53,32,0.00,0.00,5,1,5,0.00